sensor_id;sensor_type;location;lat;lon;timestamp;pressure;altitude;pressure_sealevel;temperature;humidity
13420;BME280;6781;58.440;15.470;2023-04-29T00:01:42;100656.53;;;3.21;100.00
13420;BME280;6781;58.440;15.470;2023-04-29T00:04:10;100823.91;;;4.30;100.00
13420;BME280;6781;58.440;15.470;2023-04-29T00:06:38;100817.56;;;4.20;100.00
13420;BME280;6781;58.440;15.470;2023-04-29T00:09:05;100675.53;;;2.99;100.00
13420;BME280;6781;58.440;15.470;2023-04-29T00:11:32;100748.19;;;3.87;100.00
13420;BME280;6781;58.440;15.470;2023-04-29T00:14:00;100592.28;;;2.90;100.00
13420;BME280;6781;58.440;15.470;2023-04-29T00:16:29;100837.97;;;4.23;100.00
13420;BME280;6781;58.440;15.470;2023-04-29T00:18:56;100832.53;;;4.29;100.00
13420;BME280;6781;58.440;15.470;2023-04-29T00:21:26;100764.88;;;3.96;100.00
13420;BME280;6781;58.440;15.470;2023-04-29T00:23:53;100720.22;;;3.82;100.00
13420;BME280;6781;58.440;15.470;2023-04-29T00:26:20;100760.50;;;4.15;100.00
13420;BME280;6781;58.440;15.470;2023-04-29T00:28:48;100816.97;;;4.32;100.00
13420;BME280;6781;58.440;15.470;2023-04-29T00:31:15;100534.69;;;2.63;100.00
13420;BME280;6781;58.440;15.470;2023-04-29T00:33:43;100797.34;;;4.14;100.00
13420;BME280;6781;58.440;15.470;2023-04-29T00:36:11;100713.22;;;3.50;100.00
13420;BME280;6781;58.440;15.470;2023-04-29T00:38:38;100612.25;;;3.01;100.00
13420;BME280;6781;58.440;15.470;2023-04-29T00:41:05;100642.38;;;3.32;100.00
13420;BME280;6781;58.440;15.470;2023-04-29T00:43:32;100806.69;;;4.32;100.00
13420;BME280;6781;58.440;15.470;2023-04-29T00:45:59;100654.06;;;3.01;100.00
13420;BME280;6781;58.440;15.470;2023-04-29T00:48:26;100668.31;;;3.43;100.00
13420;BME280;6781;58.440;15.470;2023-04-29T00:50:55;100768.66;;;4.06;100.00
13420;BME280;6781;58.440;15.470;2023-04-29T00:53:22;100803.16;;;4.35;100.00
13420;BME280;6781;58.440;15.470;2023-04-29T00:55:52;100793.63;;;4.37;100.00
13420;BME280;6781;58.440;15.470;2023-04-29T00:58:19;100642.44;;;3.47;100.00
13420;BME280;6781;58.440;15.470;2023-04-29T01:00:47;100770.69;;;4.16;100.00
13420;BME280;6781;58.440;15.470;2023-04-29T01:03:14;100786.91;;;4.34;100.00
13420;BME280;6781;58.440;15.470;2023-04-29T01:05:44;100791.44;;;4.12;100.00
13420;BME280;6781;58.440;15.470;2023-04-29T01:08:33;100770.16;;;4.10;100.00
13420;BME280;6781;58.440;15.470;2023-04-29T01:11:07;100796.59;;;4.29;100.00
13420;BME280;6781;58.440;15.470;2023-04-29T01:13:42;100795.06;;;4.25;100.00
13420;BME280;6781;58.440;15.470;2023-04-29T01:16:11;100664.09;;;3.42;100.00
13420;BME280;6781;58.440;15.470;2023-04-29T01:18:45;100611.38;;;3.19;100.00
13420;BME280;6781;58.440;15.470;2023-04-29T01:21:15;100758.22;;;3.74;100.00
13420;BME280;6781;58.440;15.470;2023-04-29T01:23:45;100739.06;;;3.81;100.00
13420;BME280;6781;58.440;15.470;2023-04-29T01:26:12;100786.09;;;4.16;100.00
13420;BME280;6781;58.440;15.470;2023-04-29T01:28:45;100668.44;;;3.57;100.00
13420;BME280;6781;58.440;15.470;2023-04-29T01:31:20;100631.38;;;3.30;100.00
13420;BME280;6781;58.440;15.470;2023-04-29T01:34:02;100645.63;;;2.99;100.00
13420;BME280;6781;58.440;15.470;2023-04-29T01:36:38;100714.00;;;3.69;100.00
13420;BME280;6781;58.440;15.470;2023-04-29T01:39:13;100573.56;;;2.71;100.00
13420;BME280;6781;58.440;15.470;2023-04-29T01:41:43;100582.94;;;2.89;100.00
13420;BME280;6781;58.440;15.470;2023-04-29T01:44:14;100542.47;;;2.42;100.00
13420;BME280;6781;58.440;15.470;2023-04-29T01:46:43;100652.34;;;3.38;100.00
13420;BME280;6781;58.440;15.470;2023-04-29T01:49:11;100760.88;;;4.07;100.00
13420;BME280;6781;58.440;15.470;2023-04-29T01:51:38;100535.66;;;2.60;100.00
13420;BME280;6781;58.440;15.470;2023-04-29T01:54:06;100752.34;;;4.07;100.00
13420;BME280;6781;58.440;15.470;2023-04-29T01:56:34;100768.81;;;4.03;100.00
13420;BME280;6781;58.440;15.470;2023-04-29T01:59:01;100692.56;;;3.53;100.00
13420;BME280;6781;58.440;15.470;2023-04-29T02:01:28;100696.81;;;3.71;100.00
13420;BME280;6781;58.440;15.470;2023-04-29T02:03:55;100692.16;;;3.79;100.00
13420;BME280;6781;58.440;15.470;2023-04-29T02:08:58;100642.81;;;3.57;100.00
13420;BME280;6781;58.440;15.470;2023-04-29T02:11:25;100648.69;;;3.59;100.00
13420;BME280;6781;58.440;15.470;2023-04-29T02:13:53;100602.81;;;3.37;100.00
13420;BME280;6781;58.440;15.470;2023-04-29T02:16:21;100601.53;;;3.29;100.00
13420;BME280;6781;58.440;15.470;2023-04-29T02:18:48;100603.94;;;3.32;100.00
13420;BME280;6781;58.440;15.470;2023-04-29T02:21:15;100540.31;;;2.88;100.00
13420;BME280;6781;58.440;15.470;2023-04-29T02:23:42;100625.63;;;3.59;100.00
13420;BME280;6781;58.440;15.470;2023-04-29T02:26:09;100719.53;;;4.13;100.00
13420;BME280;6781;58.440;15.470;2023-04-29T02:28:38;100439.91;;;2.47;100.00
13420;BME280;6781;58.440;15.470;2023-04-29T02:31:07;100700.44;;;4.02;100.00
13420;BME280;6781;58.440;15.470;2023-04-29T02:33:33;100456.69;;;2.52;100.00
13420;BME280;6781;58.440;15.470;2023-04-29T02:36:00;100694.84;;;3.93;100.00
13420;BME280;6781;58.440;15.470;2023-04-29T02:38:28;100712.34;;;4.20;100.00
13420;BME280;6781;58.440;15.470;2023-04-29T02:40:55;100713.25;;;4.19;100.00
13420;BME280;6781;58.440;15.470;2023-04-29T02:43:22;100671.91;;;3.90;100.00
13420;BME280;6781;58.440;15.470;2023-04-29T02:45:49;100749.03;;;4.22;100.00
13420;BME280;6781;58.440;15.470;2023-04-29T02:48:18;100692.72;;;4.19;100.00
13420;BME280;6781;58.440;15.470;2023-04-29T02:50:45;100714.94;;;4.03;100.00
13420;BME280;6781;58.440;15.470;2023-04-29T02:53:14;100453.47;;;2.30;100.00
13420;BME280;6781;58.440;15.470;2023-04-29T02:55:42;100555.06;;;2.83;100.00
13420;BME280;6781;58.440;15.470;2023-04-29T02:58:09;100599.53;;;2.99;100.00
13420;BME280;6781;58.440;15.470;2023-04-29T03:00:36;100443.28;;;2.11;100.00
13420;BME280;6781;58.440;15.470;2023-04-29T03:03:04;100721.88;;;3.83;100.00
13420;BME280;6781;58.440;15.470;2023-04-29T03:05:32;100462.53;;;2.37;100.00
13420;BME280;6781;58.440;15.470;2023-04-29T03:07:59;100722.78;;;4.00;100.00
13420;BME280;6781;58.440;15.470;2023-04-29T03:10:27;100588.25;;;3.20;100.00
13420;BME280;6781;58.440;15.470;2023-04-29T03:12:54;100720.81;;;4.05;100.00
13420;BME280;6781;58.440;15.470;2023-04-29T03:15:21;100666.03;;;3.71;100.00
13420;BME280;6781;58.440;15.470;2023-04-29T03:17:48;100547.31;;;3.02;100.00
13420;BME280;6781;58.440;15.470;2023-04-29T03:20:15;100600.53;;;3.14;100.00
13420;BME280;6781;58.440;15.470;2023-04-29T03:22:43;100619.28;;;3.49;100.00
13420;BME280;6781;58.440;15.470;2023-04-29T03:25:11;100711.31;;;4.07;100.00
13420;BME280;6781;58.440;15.470;2023-04-29T03:27:38;100710.09;;;4.14;100.00
13420;BME280;6781;58.440;15.470;2023-04-29T03:30:06;100729.41;;;4.04;100.00
13420;BME280;6781;58.440;15.470;2023-04-29T03:32:38;100681.59;;;3.68;100.00
13420;BME280;6781;58.440;15.470;2023-04-29T03:35:06;100501.59;;;2.77;100.00
13420;BME280;6781;58.440;15.470;2023-04-29T03:37:33;100538.66;;;2.87;100.00
13420;BME280;6781;58.440;15.470;2023-04-29T03:40:01;100526.44;;;2.92;100.00
13420;BME280;6781;58.440;15.470;2023-04-29T03:42:29;100710.16;;;4.12;100.00
13420;BME280;6781;58.440;15.470;2023-04-29T03:44:56;100570.00;;;2.92;100.00
13420;BME280;6781;58.440;15.470;2023-04-29T03:47:26;100387.34;;;1.86;100.00
13420;BME280;6781;58.440;15.470;2023-04-29T03:50:07;100542.50;;;2.96;100.00
13420;BME280;6781;58.440;15.470;2023-04-29T03:52:35;100486.47;;;2.36;100.00
13420;BME280;6781;58.440;15.470;2023-04-29T03:55:04;100654.88;;;3.55;100.00
13420;BME280;6781;58.440;15.470;2023-04-29T03:57:31;100530.97;;;3.21;100.00
13420;BME280;6781;58.440;15.470;2023-04-29T03:59:58;100584.59;;;3.59;100.00
13420;BME280;6781;58.440;15.470;2023-04-29T04:02:35;100424.06;;;2.39;100.00
13420;BME280;6781;58.440;15.470;2023-04-29T04:05:02;100411.16;;;2.59;100.00
13420;BME280;6781;58.440;15.470;2023-04-29T04:07:29;100682.19;;;4.41;100.00
13420;BME280;6781;58.440;15.470;2023-04-29T04:09:56;100681.34;;;4.40;100.00
13420;BME280;6781;58.440;15.470;2023-04-29T04:12:24;100654.50;;;4.30;100.00
13420;BME280;6781;58.440;15.470;2023-04-29T04:14:51;100572.94;;;3.86;100.00
13420;BME280;6781;58.440;15.470;2023-04-29T04:17:19;100560.50;;;3.79;100.00
13420;BME280;6781;58.440;15.470;2023-04-29T04:19:46;100620.69;;;4.22;100.00
13420;BME280;6781;58.440;15.470;2023-04-29T04:22:13;100627.81;;;4.17;100.00
13420;BME280;6781;58.440;15.470;2023-04-29T04:24:41;100554.91;;;3.88;100.00
13420;BME280;6781;58.440;15.470;2023-04-29T04:27:11;100663.16;;;4.61;100.00
13420;BME280;6781;58.440;15.470;2023-04-29T04:29:40;100485.31;;;3.30;100.00
13420;BME280;6781;58.440;15.470;2023-04-29T04:32:07;100397.28;;;2.98;100.00
13420;BME280;6781;58.440;15.470;2023-04-29T04:34:34;100640.63;;;4.66;100.00
13420;BME280;6781;58.440;15.470;2023-04-29T04:37:06;100391.00;;;3.03;100.00
13420;BME280;6781;58.440;15.470;2023-04-29T04:39:35;100701.63;;;4.78;100.00
13420;BME280;6781;58.440;15.470;2023-04-29T04:42:02;100618.75;;;4.58;100.00
13420;BME280;6781;58.440;15.470;2023-04-29T04:44:29;100635.00;;;4.59;100.00
13420;BME280;6781;58.440;15.470;2023-04-29T04:46:58;100491.38;;;3.93;100.00
13420;BME280;6781;58.440;15.470;2023-04-29T04:49:26;100549.81;;;4.19;100.00
13420;BME280;6781;58.440;15.470;2023-04-29T04:51:53;100533.13;;;4.28;100.00
13420;BME280;6781;58.440;15.470;2023-04-29T04:54:20;100566.16;;;4.50;100.00
13420;BME280;6781;58.440;15.470;2023-04-29T04:56:49;100652.47;;;5.15;100.00
13420;BME280;6781;58.440;15.470;2023-04-29T04:59:22;100350.97;;;3.49;100.00
13420;BME280;6781;58.440;15.470;2023-04-29T05:01:59;100495.25;;;4.47;100.00
13420;BME280;6781;58.440;15.470;2023-04-29T05:04:33;100504.78;;;4.61;100.00
13420;BME280;6781;58.440;15.470;2023-04-29T05:07:07;100554.00;;;4.99;100.00
13420;BME280;6781;58.440;15.470;2023-04-29T05:09:35;100465.75;;;4.54;100.00
13420;BME280;6781;58.440;15.470;2023-04-29T05:12:02;100512.09;;;5.13;100.00
13420;BME280;6781;58.440;15.470;2023-04-29T05:14:29;100550.19;;;5.20;100.00
13420;BME280;6781;58.440;15.470;2023-04-29T05:16:59;100573.31;;;5.50;100.00
13420;BME280;6781;58.440;15.470;2023-04-29T05:19:26;100418.97;;;4.49;100.00
13420;BME280;6781;58.440;15.470;2023-04-29T05:21:53;100608.31;;;5.97;100.00
13420;BME280;6781;58.440;15.470;2023-04-29T05:24:21;100545.22;;;5.62;100.00
13420;BME280;6781;58.440;15.470;2023-04-29T05:26:48;100569.56;;;5.84;100.00
13420;BME280;6781;58.440;15.470;2023-04-29T05:29:16;100563.31;;;5.88;100.00
13420;BME280;6781;58.440;15.470;2023-04-29T05:31:43;100402.84;;;4.92;100.00
13420;BME280;6781;58.440;15.470;2023-04-29T05:34:11;100438.84;;;5.06;100.00
13420;BME280;6781;58.440;15.470;2023-04-29T05:36:38;100542.75;;;5.88;100.00
13420;BME280;6781;58.440;15.470;2023-04-29T05:39:08;100463.34;;;5.40;100.00
13420;BME280;6781;58.440;15.470;2023-04-29T05:41:36;100580.63;;;6.15;100.00
13420;BME280;6781;58.440;15.470;2023-04-29T05:44:03;100605.97;;;6.49;100.00
13420;BME280;6781;58.440;15.470;2023-04-29T05:46:30;100613.13;;;6.59;100.00
13420;BME280;6781;58.440;15.470;2023-04-29T05:48:57;100607.31;;;6.69;100.00
13420;BME280;6781;58.440;15.470;2023-04-29T05:51:25;100557.31;;;6.45;100.00
13420;BME280;6781;58.440;15.470;2023-04-29T05:56:39;100644.28;;;6.82;100.00
13420;BME280;6781;58.440;15.470;2023-04-29T05:59:06;100516.97;;;6.31;100.00
13420;BME280;6781;58.440;15.470;2023-04-29T06:01:33;100612.78;;;6.92;100.00
13420;BME280;6781;58.440;15.470;2023-04-29T06:03:59;100568.00;;;6.80;100.00
13420;BME280;6781;58.440;15.470;2023-04-29T06:06:28;100594.41;;;6.96;100.00
13420;BME280;6781;58.440;15.470;2023-04-29T06:08:55;100589.06;;;6.99;100.00
13420;BME280;6781;58.440;15.470;2023-04-29T06:11:22;100531.03;;;6.67;100.00
13420;BME280;6781;58.440;15.470;2023-04-29T06:13:49;100552.72;;;6.77;100.00
13420;BME280;6781;58.440;15.470;2023-04-29T06:16:16;100528.69;;;6.49;100.00
13420;BME280;6781;58.440;15.470;2023-04-29T06:18:43;100578.22;;;6.94;100.00
13420;BME280;6781;58.440;15.470;2023-04-29T06:21:11;100613.03;;;7.14;100.00
13420;BME280;6781;58.440;15.470;2023-04-29T06:23:40;100377.53;;;5.69;100.00
13420;BME280;6781;58.440;15.470;2023-04-29T06:26:07;100604.41;;;7.28;100.00
13420;BME280;6781;58.440;15.470;2023-04-29T06:28:34;100576.25;;;7.37;100.00
13420;BME280;6781;58.440;15.470;2023-04-29T06:31:01;100562.53;;;7.37;100.00
13420;BME280;6781;58.440;15.470;2023-04-29T06:33:29;100311.34;;;5.85;100.00
13420;BME280;6781;58.440;15.470;2023-04-29T06:35:58;100464.91;;;7.05;100.00
13420;BME280;6781;58.440;15.470;2023-04-29T06:38:25;100571.84;;;7.77;100.00
13420;BME280;6781;58.440;15.470;2023-04-29T06:40:53;100378.91;;;6.68;100.00
13420;BME280;6781;58.440;15.470;2023-04-29T06:43:22;100561.94;;;7.97;100.00
13420;BME280;6781;58.440;15.470;2023-04-29T06:45:49;100573.59;;;8.02;100.00
13420;BME280;6781;58.440;15.470;2023-04-29T06:48:16;100566.16;;;7.98;100.00
13420;BME280;6781;58.440;15.470;2023-04-29T06:50:50;100412.09;;;7.24;100.00
13420;BME280;6781;58.440;15.470;2023-04-29T06:53:18;100429.50;;;7.58;100.00
13420;BME280;6781;58.440;15.470;2023-04-29T06:55:45;100551.94;;;8.41;100.00
13420;BME280;6781;58.440;15.470;2023-04-29T06:58:14;100556.03;;;8.57;100.00
13420;BME280;6781;58.440;15.470;2023-04-29T07:00:49;100287.75;;;6.95;100.00
13420;BME280;6781;58.440;15.470;2023-04-29T07:04:03;100513.47;;;8.85;100.00
13420;BME280;6781;58.440;15.470;2023-04-29T07:06:37;100369.25;;;8.07;100.00
13420;BME280;6781;58.440;15.470;2023-04-29T07:09:04;100505.22;;;9.14;100.00
13420;BME280;6781;58.440;15.470;2023-04-29T07:11:32;100353.72;;;8.31;100.00
13420;BME280;6781;58.440;15.470;2023-04-29T07:14:03;100335.97;;;8.50;100.00
13420;BME280;6781;58.440;15.470;2023-04-29T07:16:30;100326.22;;;8.54;100.00
13420;BME280;6781;58.440;15.470;2023-04-29T07:18:57;100407.38;;;9.08;100.00
13420;BME280;6781;58.440;15.470;2023-04-29T07:21:24;100435.84;;;9.42;100.00
13420;BME280;6781;58.440;15.470;2023-04-29T07:23:51;100336.34;;;8.90;100.00
13420;BME280;6781;58.440;15.470;2023-04-29T07:26:21;100465.03;;;9.66;100.00
13420;BME280;6781;58.440;15.470;2023-04-29T07:28:48;100491.63;;;9.79;100.00
13420;BME280;6781;58.440;15.470;2023-04-29T07:31:17;100472.31;;;9.84;100.00
13420;BME280;6781;58.440;15.470;2023-04-29T07:33:44;100476.22;;;9.89;100.00
13420;BME280;6781;58.440;15.470;2023-04-29T07:36:11;100247.25;;;8.38;100.00
13420;BME280;6781;58.440;15.470;2023-04-29T07:39:32;100481.50;;;9.76;100.00
13420;BME280;6781;58.440;15.470;2023-04-29T07:41:39;100450.44;;;9.76;100.00
13420;BME280;6781;58.440;15.470;2023-04-29T07:44:06;100286.50;;;8.99;100.00
13420;BME280;6781;58.440;15.470;2023-04-29T07:46:35;100297.66;;;9.11;100.00
13420;BME280;6781;58.440;15.470;2023-04-29T07:49:02;100297.31;;;9.04;100.00
13420;BME280;6781;58.440;15.470;2023-04-29T07:51:31;100329.97;;;9.50;100.00
13420;BME280;6781;58.440;15.470;2023-04-29T07:53:58;100190.13;;;8.86;100.00
13420;BME280;6781;58.440;15.470;2023-04-29T07:56:31;100188.69;;;9.04;100.00
13420;BME280;6781;58.440;15.470;2023-04-29T07:59:06;100437.16;;;10.77;100.00
13420;BME280;6781;58.440;15.470;2023-04-29T08:01:35;100320.31;;;10.27;100.00
13420;BME280;6781;58.440;15.470;2023-04-29T08:04:02;100305.47;;;10.18;95.12
13420;BME280;6781;58.440;15.470;2023-04-29T08:06:29;100317.91;;;10.35;91.53
13420;BME280;6781;58.440;15.470;2023-04-29T08:08:57;100388.94;;;10.95;88.93
13420;BME280;6781;58.440;15.470;2023-04-29T08:11:24;100276.94;;;10.29;85.68
13420;BME280;6781;58.440;15.470;2023-04-29T08:13:51;100301.31;;;10.48;84.22
13420;BME280;6781;58.440;15.470;2023-04-29T08:16:23;100256.97;;;10.20;84.77
13420;BME280;6781;58.440;15.470;2023-04-29T08:18:52;100139.16;;;9.83;84.32
13420;BME280;6781;58.440;15.470;2023-04-29T08:21:20;100339.03;;;11.13;84.92
13420;BME280;6781;58.440;15.470;2023-04-29T08:23:48;100363.22;;;11.53;82.49
13420;BME280;6781;58.440;15.470;2023-04-29T08:26:15;100166.38;;;10.59;78.81
13420;BME280;6781;58.440;15.470;2023-04-29T08:28:42;100210.66;;;11.36;79.44
13420;BME280;6781;58.440;15.470;2023-04-29T08:31:15;100269.53;;;12.32;76.92
13420;BME280;6781;58.440;15.470;2023-04-29T08:33:54;100213.50;;;12.84;72.17
13420;BME280;6781;58.440;15.470;2023-04-29T08:36:23;100299.81;;;13.17;66.36
13420;BME280;6781;58.440;15.470;2023-04-29T08:38:53;100200.56;;;12.65;64.28
13420;BME280;6781;58.440;15.470;2023-04-29T08:41:20;100146.22;;;12.07;63.11
13420;BME280;6781;58.440;15.470;2023-04-29T08:43:47;100285.97;;;12.79;63.35
13420;BME280;6781;58.440;15.470;2023-04-29T08:46:15;100148.31;;;11.94;63.53
13420;BME280;6781;58.440;15.470;2023-04-29T08:48:43;100293.41;;;13.01;62.99
13420;BME280;6781;58.440;15.470;2023-04-29T08:51:12;100270.56;;;12.95;64.19
13420;BME280;6781;58.440;15.470;2023-04-29T08:53:39;100202.50;;;12.63;62.71
13420;BME280;6781;58.440;15.470;2023-04-29T08:56:10;100166.47;;;12.41;61.99
13420;BME280;6781;58.440;15.470;2023-04-29T08:58:40;100071.13;;;12.04;60.28
13420;BME280;6781;58.440;15.470;2023-04-29T09:01:08;100145.38;;;12.44;58.30
13420;BME280;6781;58.440;15.470;2023-04-29T09:03:41;100132.94;;;12.37;61.21
13420;BME280;6781;58.440;15.470;2023-04-29T09:06:11;100156.59;;;12.44;60.27
13420;BME280;6781;58.440;15.470;2023-04-29T09:08:40;100141.03;;;12.34;61.07
13420;BME280;6781;58.440;15.470;2023-04-29T09:11:08;100324.72;;;13.29;60.50
13420;BME280;6781;58.440;15.470;2023-04-29T09:13:37;100319.50;;;13.29;61.51
13420;BME280;6781;58.440;15.470;2023-04-29T09:16:12;100308.69;;;13.24;62.43
13420;BME280;6781;58.440;15.470;2023-04-29T09:18:46;100230.38;;;12.80;66.01
13420;BME280;6781;58.440;15.470;2023-04-29T09:21:17;100309.19;;;13.55;64.27
13420;BME280;6781;58.440;15.470;2023-04-29T09:23:45;100134.19;;;12.33;64.52
13420;BME280;6781;58.440;15.470;2023-04-29T09:26:12;100119.88;;;11.83;64.32
13420;BME280;6781;58.440;15.470;2023-04-29T09:28:39;100305.94;;;12.88;64.79
13420;BME280;6781;58.440;15.470;2023-04-29T09:31:08;100314.81;;;12.49;65.14
13420;BME280;6781;58.440;15.470;2023-04-29T09:33:51;100133.88;;;11.24;65.70
13420;BME280;6781;58.440;15.470;2023-04-29T09:36:47;100314.53;;;12.52;69.79
13420;BME280;6781;58.440;15.470;2023-04-29T09:39:22;100263.41;;;12.23;66.74
13420;BME280;6781;58.440;15.470;2023-04-29T09:42:08;100220.53;;;12.00;65.74
13420;BME280;6781;58.440;15.470;2023-04-29T09:44:40;100217.91;;;12.00;66.53
13420;BME280;6781;58.440;15.470;2023-04-29T09:47:16;100082.78;;;11.15;66.20
13420;BME280;6781;58.440;15.470;2023-04-29T09:49:49;100176.38;;;11.81;66.65
13420;BME280;6781;58.440;15.470;2023-04-29T09:52:41;100160.91;;;11.50;65.90
13420;BME280;6781;58.440;15.470;2023-04-29T09:55:12;100271.28;;;12.51;67.72
13420;BME280;6781;58.440;15.470;2023-04-29T09:57:41;100197.66;;;12.13;68.18
13420;BME280;6781;58.440;15.470;2023-04-29T10:00:13;100077.50;;;11.72;68.73
13420;BME280;6781;58.440;15.470;2023-04-29T10:02:45;100127.44;;;12.68;68.35
13420;BME280;6781;58.440;15.470;2023-04-29T10:05:13;100187.72;;;13.09;66.16
13420;BME280;6781;58.440;15.470;2023-04-29T10:07:45;100179.88;;;13.18;63.64
13420;BME280;6781;58.440;15.470;2023-04-29T10:10:12;100223.50;;;13.70;62.95
13420;BME280;6781;58.440;15.470;2023-04-29T10:12:40;100193.06;;;13.52;64.48
13420;BME280;6781;58.440;15.470;2023-04-29T10:15:17;100120.22;;;13.25;63.60
13420;BME280;6781;58.440;15.470;2023-04-29T10:17:54;100144.63;;;13.24;63.72
13420;BME280;6781;58.440;15.470;2023-04-29T10:20:24;100226.63;;;13.55;63.24
13420;BME280;6781;58.440;15.470;2023-04-29T10:22:58;100141.59;;;12.83;64.52
13420;BME280;6781;58.440;15.470;2023-04-29T10:25:28;100082.97;;;12.61;64.21
13420;BME280;6781;58.440;15.470;2023-04-29T10:27:56;100173.44;;;13.13;63.20
13420;BME280;6781;58.440;15.470;2023-04-29T10:30:25;100072.91;;;12.49;65.52
13420;BME280;6781;58.440;15.470;2023-04-29T10:32:54;100154.63;;;13.01;67.77
13420;BME280;6781;58.440;15.470;2023-04-29T10:35:21;100172.22;;;13.17;64.94
13420;BME280;6781;58.440;15.470;2023-04-29T10:37:50;100213.00;;;13.44;66.40
13420;BME280;6781;58.440;15.470;2023-04-29T10:40:28;100130.28;;;12.92;66.34
13420;BME280;6781;58.440;15.470;2023-04-29T10:42:57;100204.69;;;13.13;66.94
13420;BME280;6781;58.440;15.470;2023-04-29T10:45:28;100190.47;;;12.89;65.71
13420;BME280;6781;58.440;15.470;2023-04-29T10:48:15;100039.34;;;12.10;67.10
13420;BME280;6781;58.440;15.470;2023-04-29T10:51:01;100175.84;;;12.79;66.42
13420;BME280;6781;58.440;15.470;2023-04-29T10:53:28;99950.94;;;11.28;65.38
13420;BME280;6781;58.440;15.470;2023-04-29T10:55:59;100025.25;;;11.76;69.33
13420;BME280;6781;58.440;15.470;2023-04-29T10:58:45;100192.19;;;12.44;69.23
13420;BME280;6781;58.440;15.470;2023-04-29T11:01:13;100172.81;;;12.19;70.50
13420;BME280;6781;58.440;15.470;2023-04-29T11:03:48;100084.91;;;11.58;72.39
13420;BME280;6781;58.440;15.470;2023-04-29T11:06:23;100192.59;;;12.02;72.99
13420;BME280;6781;58.440;15.470;2023-04-29T11:09:06;100158.31;;;11.89;73.48
13420;BME280;6781;58.440;15.470;2023-04-29T11:11:58;100184.13;;;12.00;74.75
13420;BME280;6781;58.440;15.470;2023-04-29T11:14:30;100131.66;;;11.67;74.41
13420;BME280;6781;58.440;15.470;2023-04-29T11:16:58;100056.16;;;11.03;74.74
13420;BME280;6781;58.440;15.470;2023-04-29T11:19:32;100154.34;;;11.85;75.56
13420;BME280;6781;58.440;15.470;2023-04-29T11:22:11;100168.25;;;12.03;77.12
13420;BME280;6781;58.440;15.470;2023-04-29T11:24:52;100153.13;;;12.16;76.68
13420;BME280;6781;58.440;15.470;2023-04-29T11:27:23;99919.78;;;10.71;77.75
13420;BME280;6781;58.440;15.470;2023-04-29T11:29:55;100080.66;;;11.66;75.60
13420;BME280;6781;58.440;15.470;2023-04-29T11:32:25;100156.13;;;12.21;77.11
13420;BME280;6781;58.440;15.470;2023-04-29T11:34:53;100123.28;;;11.93;75.73
13420;BME280;6781;58.440;15.470;2023-04-29T11:37:27;99919.41;;;10.28;75.51
13420;BME280;6781;58.440;15.470;2023-04-29T11:40:04;100147.25;;;11.48;76.33
13420;BME280;6781;58.440;15.470;2023-04-29T11:42:40;100118.28;;;11.24;78.37
13420;BME280;6781;58.440;15.470;2023-04-29T11:45:43;99922.97;;;9.77;78.19
13420;BME280;6781;58.440;15.470;2023-04-29T11:48:16;99998.25;;;10.35;80.43
13420;BME280;6781;58.440;15.470;2023-04-29T11:50:44;100049.72;;;10.59;81.48
13420;BME280;6781;58.440;15.470;2023-04-29T11:53:12;100077.56;;;10.66;83.88
13420;BME280;6781;58.440;15.470;2023-04-29T11:55:43;99992.50;;;10.22;84.93
13420;BME280;6781;58.440;15.470;2023-04-29T11:58:19;100053.53;;;10.74;84.59
13420;BME280;6781;58.440;15.470;2023-04-29T12:00:46;99992.25;;;10.44;85.03
13420;BME280;6781;58.440;15.470;2023-04-29T12:03:14;99912.78;;;9.95;85.22
13420;BME280;6781;58.440;15.470;2023-04-29T12:05:46;99904.22;;;10.04;85.46
13420;BME280;6781;58.440;15.470;2023-04-29T12:08:13;100078.66;;;11.41;83.92
13420;BME280;6781;58.440;15.470;2023-04-29T12:10:40;99889.50;;;10.53;85.96
13420;BME280;6781;58.440;15.470;2023-04-29T12:13:07;100027.53;;;11.51;85.80
13420;BME280;6781;58.440;15.470;2023-04-29T12:15:37;100021.97;;;11.73;84.91
13420;BME280;6781;58.440;15.470;2023-04-29T12:18:06;99899.75;;;11.11;84.71
13420;BME280;6781;58.440;15.470;2023-04-29T12:20:34;99910.00;;;11.12;83.25
13420;BME280;6781;58.440;15.470;2023-04-29T12:23:13;100035.53;;;11.77;82.65
13420;BME280;6781;58.440;15.470;2023-04-29T12:25:51;99956.22;;;11.36;82.83
13420;BME280;6781;58.440;15.470;2023-04-29T12:28:19;100094.22;;;12.07;86.08
13420;BME280;6781;58.440;15.470;2023-04-29T12:30:49;99943.88;;;11.01;85.75
13420;BME280;6781;58.440;15.470;2023-04-29T12:33:20;100098.53;;;11.89;87.86
13420;BME280;6781;58.440;15.470;2023-04-29T12:35:48;100020.34;;;11.72;88.62
13420;BME280;6781;58.440;15.470;2023-04-29T12:38:19;100068.44;;;12.41;87.08
13420;BME280;6781;58.440;15.470;2023-04-29T12:40:47;99981.72;;;12.32;87.50
13420;BME280;6781;58.440;15.470;2023-04-29T12:43:15;99875.81;;;11.81;85.08
13420;BME280;6781;58.440;15.470;2023-04-29T12:45:43;100024.47;;;12.65;84.67
13420;BME280;6781;58.440;15.470;2023-04-29T12:48:11;99950.91;;;12.02;83.75
13420;BME280;6781;58.440;15.470;2023-04-29T12:50:40;100040.56;;;12.33;84.62
13420;BME280;6781;58.440;15.470;2023-04-29T12:53:07;99878.53;;;11.25;86.48
13420;BME280;6781;58.440;15.470;2023-04-29T12:55:35;99811.50;;;10.36;87.66
13420;BME280;6781;58.440;15.470;2023-04-29T12:58:03;100003.53;;;11.20;89.81
13420;BME280;6781;58.440;15.470;2023-04-29T13:00:31;100071.56;;;11.33;90.78
13420;BME280;6781;58.440;15.470;2023-04-29T13:02:59;99935.06;;;10.46;93.90
13420;BME280;6781;58.440;15.470;2023-04-29T13:05:28;99942.25;;;10.03;98.67
13420;BME280;6781;58.440;15.470;2023-04-29T13:07:55;100109.75;;;10.64;100.00
13420;BME280;6781;58.440;15.470;2023-04-29T13:10:22;100063.41;;;9.90;100.00